createdAt,value
2018-09-24T00:00:27.406Z,69.78
2018-09-24T00:02:55.472Z,69.75
2018-09-24T00:05:23.555Z,69.49
2018-09-24T00:07:51.616Z,69.85
2018-09-24T00:10:19.708Z,69.29
2018-09-24T00:12:47.755Z,69.71
2018-09-24T00:15:15.800Z,69.58
2018-09-24T00:17:43.863Z,70.36
2018-09-24T00:20:11.905Z,70.23
2018-09-24T00:22:39.957Z,69.90
2018-09-24T00:25:08.040Z,69.51
2018-09-24T00:27:36.106Z,69.53
2018-09-24T00:30:04.157Z,69.65
2018-09-24T00:32:32.212Z,68.61
2018-09-24T00:35:00.276Z,68.78
2018-09-24T00:37:28.339Z,68.62
2018-09-24T00:39:56.390Z,68.29
2018-09-24T00:42:24.457Z,67.48
2018-09-24T00:44:52.512Z,66.64
2018-09-24T00:47:20.684Z,67.14
2018-09-24T00:49:48.732Z,66.72
2018-09-24T00:52:16.791Z,66.12
2018-09-24T00:54:44.842Z,64.96
2018-09-24T00:57:12.893Z,64.80
2018-09-24T00:59:40.952Z,65.63
2018-09-24T01:02:09.007Z,65.05
2018-09-24T01:04:37.044Z,65.00
2018-09-24T01:07:05.135Z,64.95
2018-09-24T01:09:33.192Z,64.94
2018-09-24T01:12:01.248Z,65.46
2018-09-24T01:14:29.300Z,65.70
2018-09-24T01:16:57.366Z,66.11
2018-09-24T01:19:25.432Z,65.76
2018-09-24T01:21:53.493Z,66.53
2018-09-24T01:24:21.548Z,66.51
2018-09-24T01:26:49.600Z,66.90
2018-09-24T01:29:17.704Z,66.85
2018-09-24T01:31:45.788Z,66.69
2018-09-24T01:34:13.899Z,67.75
2018-09-24T01:36:41.979Z,67.74
2018-09-24T01:39:10.060Z,68.04
2018-09-24T01:41:38.124Z,67.70
2018-09-24T01:44:06.215Z,68.04
2018-09-24T01:46:34.292Z,67.88
2018-09-24T01:49:02.337Z,68.20
2018-09-24T01:51:36.517Z,68.29
2018-09-24T01:54:05.306Z,68.64
2018-09-24T01:56:33.400Z,68.38
2018-09-24T01:59:01.443Z,68.42
2018-09-24T02:01:29.523Z,68.74
2018-09-24T02:03:57.595Z,68.99
2018-09-24T02:06:25.648Z,68.55
2018-09-24T02:08:53.727Z,69.30
2018-09-24T02:11:21.820Z,69.18
2018-09-24T02:13:52.751Z,69.08
2018-09-24T02:16:21.210Z,69.24
2018-09-24T02:18:49.614Z,68.94
2018-09-24T02:21:17.963Z,69.14
2018-09-24T02:23:46.030Z,69.07
2018-09-24T02:26:14.114Z,69.41
2018-09-24T02:28:42.176Z,69.42
2018-09-24T02:31:10.227Z,69.80
2018-09-24T02:33:38.304Z,69.71
2018-09-24T02:36:06.352Z,69.89
2018-09-24T02:38:37.472Z,70.04
2018-09-24T02:41:05.528Z,70.01
2018-09-24T02:43:33.573Z,70.39
2018-09-24T02:46:01.636Z,69.67
2018-09-24T02:48:29.680Z,70.29
2018-09-24T02:50:57.752Z,70.62
2018-09-24T02:53:25.869Z,70.24
2018-09-24T02:55:53.920Z,70.62
2018-09-24T02:58:22.292Z,70.51
2018-09-24T03:00:50.553Z,71.13
2018-09-24T03:03:18.612Z,70.97
2018-09-24T03:05:46.668Z,70.90
2018-09-24T03:08:15.086Z,70.74
2018-09-24T03:10:43.444Z,70.78
2018-09-24T03:13:11.504Z,71.27
2018-09-24T03:15:41.034Z,71.24
2018-09-24T03:18:09.724Z,70.96
2018-09-24T03:20:39.896Z,71.62
2018-09-24T03:23:08.315Z,71.00
2018-09-24T03:25:36.453Z,71.45
2018-09-24T03:28:04.668Z,71.56
2018-09-24T03:30:38.656Z,71.43
2018-09-24T03:33:06.716Z,70.87
2018-09-24T03:35:35.025Z,71.28
2018-09-24T03:38:03.125Z,71.35
2018-09-24T03:40:31.548Z,71.17
2018-09-24T03:43:00.009Z,71.73
2018-09-24T03:45:28.920Z,71.49
2018-09-24T03:47:57.040Z,70.58
2018-09-24T03:50:25.075Z,71.55
2018-09-24T03:52:53.120Z,70.88
2018-09-24T03:55:21.209Z,70.82
2018-09-24T03:57:49.249Z,70.94
2018-09-24T04:00:17.313Z,71.02
2018-09-24T04:02:45.390Z,70.90
2018-09-24T04:05:18.893Z,70.62
2018-09-24T04:07:52.276Z,70.49
2018-09-24T04:10:25.909Z,70.01
2018-09-24T04:12:59.308Z,69.81
2018-09-24T04:15:32.688Z,69.53
2018-09-24T04:18:06.117Z,69.61
2018-09-24T04:20:39.604Z,69.38
2018-09-24T04:23:13.176Z,69.18
2018-09-24T04:25:46.772Z,68.37
2018-09-24T04:28:20.262Z,68.65
2018-09-24T04:30:53.864Z,68.93
2018-09-24T04:33:27.382Z,68.38
2018-09-24T04:36:00.960Z,68.19
2018-09-24T04:38:34.332Z,68.45
2018-09-24T04:41:07.773Z,68.84
2018-09-24T04:43:41.189Z,67.99
2018-09-24T04:46:14.613Z,68.28
2018-09-24T04:48:48.005Z,67.80
2018-09-24T04:51:21.415Z,68.12
2018-09-24T04:53:54.949Z,67.72
2018-09-24T04:56:28.505Z,67.72
2018-09-24T04:59:01.858Z,67.89
2018-09-24T05:01:35.227Z,68.72
2018-09-24T05:04:08.788Z,68.12
2018-09-24T05:06:42.188Z,68.32
2018-09-24T05:09:15.564Z,68.94
2018-09-24T05:11:48.949Z,68.11
2018-09-24T05:14:22.328Z,68.36
2018-09-24T05:16:55.776Z,68.78
2018-09-24T05:19:29.328Z,68.78
2018-09-24T05:22:02.852Z,68.57
2018-09-24T05:24:36.237Z,67.93
2018-09-24T05:27:09.742Z,67.10
2018-09-24T05:29:43.146Z,67.38
2018-09-24T05:32:16.549Z,67.91
2018-09-24T05:34:49.952Z,67.68
2018-09-24T05:37:23.351Z,67.47
2018-09-24T05:39:56.857Z,67.39
2018-09-24T05:42:30.336Z,67.59
2018-09-24T05:45:03.843Z,67.38
2018-09-24T05:47:37.240Z,67.32
2018-09-24T05:50:10.668Z,66.72
2018-09-24T05:52:44.125Z,66.98
2018-09-24T05:55:17.596Z,66.79
2018-09-24T05:57:51.050Z,67.04
2018-09-24T06:00:24.640Z,65.97
2018-09-24T06:02:58.225Z,66.76
2018-09-24T06:05:31.657Z,66.18
2018-09-24T06:08:04.984Z,66.63
2018-09-24T06:10:38.344Z,67.31
2018-09-24T06:13:11.833Z,66.68
2018-09-24T06:15:45.249Z,66.51
2018-09-24T06:18:18.670Z,66.91
2018-09-24T06:20:52.054Z,66.57
2018-09-24T06:23:25.535Z,66.67
2018-09-24T06:25:58.956Z,66.07
2018-09-24T06:28:32.566Z,65.75
2018-09-24T06:31:05.899Z,65.67
2018-09-24T06:33:39.236Z,65.08
2018-09-24T06:36:12.620Z,65.13
2018-09-24T06:38:45.991Z,65.01
2018-09-24T06:41:19.421Z,63.90
2018-09-24T06:43:52.953Z,64.02
2018-09-24T06:46:26.488Z,62.71
2018-09-24T06:48:59.960Z,62.28
2018-09-24T06:51:33.412Z,62.87
2018-09-24T06:54:06.808Z,61.88
2018-09-24T06:56:40.316Z,61.83
2018-09-24T06:59:13.856Z,62.29
2018-09-24T07:01:47.196Z,63.04
2018-09-24T07:04:20.569Z,62.66
2018-09-24T07:06:54.003Z,61.48
2018-09-24T07:09:27.381Z,60.88
2018-09-24T07:12:00.864Z,60.34
2018-09-24T07:14:34.408Z,59.96
2018-09-24T07:17:08.030Z,59.47
2018-09-24T07:19:41.449Z,58.42
2018-09-24T07:22:14.830Z,56.88
2018-09-24T07:24:48.274Z,56.75
2018-09-24T07:27:21.656Z,54.89
2018-09-24T07:29:55.052Z,55.36
2018-09-24T07:32:28.621Z,53.42
2018-09-24T07:35:02.222Z,53.12
2018-09-24T07:37:35.640Z,52.80
2018-09-24T07:40:09.044Z,51.74
2018-09-24T07:42:42.443Z,52.05
2018-09-24T07:45:15.800Z,50.67
2018-09-24T07:47:49.252Z,50.80
2018-09-24T07:50:22.856Z,50.19
2018-09-24T07:52:56.416Z,49.83
2018-09-24T07:55:30.120Z,48.64
2018-09-24T07:58:03.444Z,48.16
2018-09-24T08:00:36.812Z,47.18
2018-09-24T08:03:10.148Z,47.49
2018-09-24T08:05:43.676Z,47.26
2018-09-24T08:08:17.228Z,44.70
2018-09-24T08:10:50.712Z,46.28
2018-09-24T08:13:24.332Z,44.73
2018-09-24T08:15:57.837Z,43.03
2018-09-24T08:18:31.360Z,44.68
2018-09-24T08:21:04.878Z,44.34
2018-09-24T08:23:38.173Z,42.87
2018-09-24T08:26:11.653Z,42.03
2018-09-24T08:28:45.054Z,42.39
2018-09-24T08:31:18.485Z,42.93
2018-09-24T08:33:51.864Z,43.18
2018-09-24T08:36:25.415Z,42.97
2018-09-24T08:38:58.894Z,42.60
2018-09-24T08:41:32.396Z,42.79
2018-09-24T08:44:06.052Z,43.15
2018-09-24T08:46:39.599Z,43.02
2018-09-24T08:49:13.187Z,42.96
2018-09-24T08:51:46.590Z,42.66
2018-09-24T08:54:20.013Z,42.30
2018-09-24T08:56:53.414Z,43.31
2018-09-24T08:59:26.836Z,43.10
2018-09-24T09:02:00.323Z,42.43
2018-09-24T09:04:33.872Z,42.78
2018-09-24T09:07:07.399Z,42.42
2018-09-24T09:09:40.885Z,42.30
2018-09-24T09:12:14.425Z,42.49
2018-09-24T09:14:47.808Z,42.89
2018-09-24T09:17:21.336Z,42.89
2018-09-24T09:19:54.737Z,43.03
2018-09-24T09:22:28.207Z,42.87
2018-09-24T09:25:01.620Z,43.30
2018-09-24T09:27:35.092Z,42.76
2018-09-24T09:30:08.633Z,41.96
2018-09-24T09:32:42.136Z,42.75
2018-09-24T09:35:15.716Z,43.15
2018-09-24T09:37:48.982Z,43.61
2018-09-24T09:40:22.396Z,43.48
2018-09-24T09:42:55.820Z,44.42
2018-09-24T09:45:29.239Z,44.59
2018-09-24T09:48:02.676Z,45.72
2018-09-24T09:50:36.205Z,46.82
2018-09-24T09:53:09.657Z,46.82
2018-09-24T09:55:43.158Z,47.29
2018-09-24T09:58:16.704Z,47.36
2018-09-24T10:00:50.036Z,48.15
2018-09-24T10:03:23.569Z,49.45
2018-09-24T10:05:57.044Z,49.09
2018-09-24T10:08:30.580Z,49.91
2018-09-24T10:11:04.149Z,51.07
2018-09-24T10:13:37.715Z,51.26
2018-09-24T10:16:11.262Z,52.19
2018-09-24T10:18:44.629Z,51.97
2018-09-24T10:21:25.194Z,53.22
2018-09-24T10:23:58.587Z,55.16
2018-09-24T10:26:31.944Z,56.42
2018-09-24T10:29:05.371Z,57.83
2018-09-24T10:31:38.734Z,56.60
2018-09-24T10:34:12.204Z,57.15
2018-09-24T10:36:46.012Z,57.23
2018-09-24T10:39:19.452Z,56.98
2018-09-24T10:41:52.988Z,57.65
2018-09-24T10:44:26.533Z,56.65
2018-09-24T10:46:59.939Z,56.80
2018-09-24T10:49:33.373Z,55.43
2018-09-24T10:52:06.848Z,54.81
2018-09-24T10:54:40.230Z,53.92
2018-09-24T10:57:13.612Z,53.07
2018-09-24T10:59:47.212Z,51.20
2018-09-24T11:02:20.776Z,51.10
2018-09-24T11:04:54.332Z,50.88
2018-09-24T11:07:27.816Z,50.89
2018-09-24T11:10:01.370Z,50.35
2018-09-24T11:12:34.755Z,49.99
2018-09-24T11:15:08.141Z,50.20
2018-09-24T11:17:41.860Z,50.63
2018-09-24T11:20:14.805Z,50.05
2018-09-24T11:22:48.209Z,49.27
2018-09-24T11:25:21.741Z,49.03
2018-09-24T11:27:55.268Z,48.56
2018-09-24T11:30:28.788Z,48.35
2018-09-24T11:33:02.325Z,46.60
2018-09-24T11:35:35.953Z,46.05
2018-09-24T11:38:09.357Z,45.19
2018-09-24T11:40:42.919Z,45.24
2018-09-24T11:43:16.474Z,44.64
2018-09-24T11:45:49.886Z,44.00
2018-09-24T11:48:23.378Z,43.01
2018-09-24T11:50:56.828Z,44.47
2018-09-24T11:53:30.208Z,43.46
2018-09-24T11:56:03.812Z,42.88
2018-09-24T11:58:37.372Z,42.36
2018-09-24T12:01:10.748Z,43.41
2018-09-24T12:03:44.173Z,42.66
2018-09-24T12:06:17.681Z,42.45
2018-09-24T12:08:51.123Z,41.10
2018-09-24T12:11:24.640Z,41.46
2018-09-24T12:13:58.061Z,40.39
2018-09-24T12:16:31.440Z,39.09
2018-09-24T12:19:04.912Z,40.43
2018-09-24T12:21:38.508Z,40.86
2018-09-24T12:24:12.415Z,38.29
2018-09-24T12:26:45.757Z,40.16
2018-09-24T12:29:19.203Z,39.86
2018-09-24T12:31:52.765Z,39.08
2018-09-24T12:34:26.261Z,39.16
2018-09-24T12:36:59.589Z,39.17
2018-09-24T12:39:32.937Z,38.51
2018-09-24T12:42:06.455Z,38.90
2018-09-24T12:44:39.924Z,39.40
2018-09-24T12:47:13.435Z,40.47
2018-09-24T12:49:46.800Z,41.07
2018-09-24T12:52:20.335Z,44.32
2018-09-24T12:54:53.937Z,42.32
2018-09-24T12:57:27.445Z,41.20
2018-09-24T13:00:00.972Z,41.20
2018-09-24T13:02:34.368Z,41.47
2018-09-24T13:05:07.796Z,40.65
2018-09-24T13:07:41.342Z,40.75
2018-09-24T13:10:14.756Z,40.80
2018-09-24T13:12:48.141Z,40.22
2018-09-24T13:15:21.555Z,39.90
2018-09-24T13:17:54.968Z,40.42
2018-09-24T13:20:28.368Z,40.40
2018-09-24T13:23:01.725Z,39.19
2018-09-24T13:25:35.196Z,39.09
2018-09-24T13:28:08.675Z,41.77
2018-09-24T13:30:42.181Z,40.72
2018-09-24T13:33:15.683Z,40.28
2018-09-24T13:35:49.204Z,40.10
2018-09-24T13:38:22.569Z,38.71
2018-09-24T13:40:56.163Z,39.27
2018-09-24T13:43:29.574Z,39.50
2018-09-24T13:46:03.044Z,39.61
2018-09-24T13:48:36.428Z,38.41
2018-09-24T13:51:09.944Z,37.37
2018-09-24T13:53:43.338Z,38.08
2018-09-24T13:56:16.743Z,38.71
2018-09-24T13:58:50.222Z,38.65
2018-09-24T14:01:23.744Z,38.63
2018-09-24T14:03:57.172Z,38.84
2018-09-24T14:06:30.698Z,38.74
2018-09-24T14:09:04.072Z,38.89
2018-09-24T14:11:37.475Z,38.92
2018-09-24T14:14:10.980Z,38.46
2018-09-24T14:16:44.515Z,37.25
2018-09-24T14:19:17.840Z,38.80
2018-09-24T14:21:51.187Z,38.03
2018-09-24T14:24:24.768Z,37.99
2018-09-24T14:26:58.293Z,37.80
2018-09-24T14:29:31.792Z,37.25
2018-09-24T14:32:05.305Z,37.37
2018-09-24T14:34:38.733Z,37.76
2018-09-24T14:37:12.374Z,38.26
2018-09-24T14:39:45.773Z,37.76
2018-09-24T14:42:19.113Z,38.11
2018-09-24T14:44:52.604Z,38.10
2018-09-24T14:47:26.129Z,38.51
2018-09-24T14:49:59.652Z,38.56
2018-09-24T14:52:33.187Z,38.45
2018-09-24T14:55:06.603Z,38.84
2018-09-24T14:57:40.028Z,39.83
2018-09-24T15:00:13.493Z,40.24
2018-09-24T15:02:46.992Z,40.76
2018-09-24T15:05:20.522Z,41.56
2018-09-24T15:07:53.926Z,42.19
2018-09-24T15:10:27.272Z,42.48
2018-09-24T15:13:00.601Z,43.32
2018-09-24T15:15:33.909Z,43.90
2018-09-24T15:18:07.469Z,43.48
2018-09-24T15:20:41.040Z,43.45
2018-09-24T15:23:14.468Z,43.62
2018-09-24T15:25:48.000Z,43.86
2018-09-24T15:28:21.453Z,44.19
2018-09-24T15:30:54.856Z,44.60
2018-09-24T15:33:28.401Z,44.90
2018-09-24T15:36:01.912Z,45.30
2018-09-24T15:38:35.320Z,44.94
2018-09-24T15:41:08.793Z,46.13
2018-09-24T15:43:42.292Z,45.56
2018-09-24T15:46:15.804Z,45.95
2018-09-24T15:48:49.144Z,46.74
2018-09-24T15:51:22.547Z,46.83
2018-09-24T15:53:55.981Z,46.80
2018-09-24T15:56:29.560Z,47.38
2018-09-24T15:59:03.084Z,48.16
2018-09-24T16:01:36.499Z,48.57
2018-09-24T16:04:09.993Z,50.11
2018-09-24T16:06:43.558Z,49.55
2018-09-24T16:09:16.896Z,50.39
2018-09-24T16:11:50.481Z,49.93
2018-09-24T16:14:24.057Z,50.98
2018-09-24T16:16:57.412Z,51.43
2018-09-24T16:19:30.928Z,50.72
2018-09-24T16:22:04.289Z,51.11
2018-09-24T16:24:37.615Z,50.89
2018-09-24T16:27:11.253Z,51.69
2018-09-24T16:29:44.759Z,51.49
2018-09-24T16:32:18.312Z,52.42
2018-09-24T16:34:51.925Z,53.05
2018-09-24T16:37:25.578Z,52.73
2018-09-24T16:39:59.156Z,53.25
2018-09-24T16:42:32.729Z,54.03
2018-09-24T16:45:06.356Z,53.81
2018-09-24T16:47:39.893Z,54.81
2018-09-24T16:50:13.503Z,54.31
2018-09-24T16:52:46.953Z,54.76
2018-09-24T16:55:20.521Z,54.32
2018-09-24T16:57:54.083Z,54.31
2018-09-24T17:00:27.511Z,55.23
2018-09-24T17:03:01.092Z,55.19
2018-09-24T17:05:34.581Z,54.75
2018-09-24T17:08:08.070Z,55.22
2018-09-24T17:10:41.547Z,55.11
2018-09-24T17:13:15.077Z,55.48
2018-09-24T17:15:48.485Z,54.83
2018-09-24T17:18:21.888Z,55.14
2018-09-24T17:20:55.437Z,54.90
2018-09-24T17:23:28.983Z,54.46
2018-09-24T17:26:02.588Z,55.03
2018-09-24T17:28:36.237Z,55.80
2018-09-24T17:31:09.671Z,56.16
2018-09-24T17:33:43.233Z,57.87
2018-09-24T17:36:16.693Z,58.17
2018-09-24T17:38:50.214Z,59.04
2018-09-24T17:41:23.780Z,58.83
2018-09-24T17:43:57.389Z,59.30
2018-09-24T17:46:30.954Z,59.83
2018-09-24T17:49:04.303Z,59.47
2018-09-24T17:51:37.745Z,60.13
2018-09-24T17:54:11.248Z,60.14
2018-09-24T17:56:44.580Z,60.42
2018-09-24T17:59:18.060Z,60.28
2018-09-24T18:01:51.583Z,60.24
2018-09-24T18:04:24.967Z,60.58
2018-09-24T18:06:58.567Z,60.94
2018-09-24T18:09:32.048Z,60.93
2018-09-24T18:12:05.497Z,61.41
2018-09-24T18:14:39.025Z,61.43
2018-09-24T18:17:12.372Z,61.30
2018-09-24T18:19:46.043Z,61.36
2018-09-24T18:22:19.460Z,61.78
2018-09-24T18:24:52.896Z,62.05
2018-09-24T18:27:26.782Z,61.51
2018-09-24T18:30:00.304Z,61.92
2018-09-24T18:32:33.708Z,62.28
2018-09-24T18:35:07.234Z,61.91
2018-09-24T18:37:40.880Z,61.81
2018-09-24T18:40:14.408Z,62.12
2018-09-24T18:42:47.772Z,62.06
2018-09-24T18:45:21.313Z,62.06
2018-09-24T18:47:54.737Z,61.86
2018-09-24T18:50:28.180Z,62.45
2018-09-24T18:53:01.584Z,61.99
2018-09-24T18:55:35.122Z,62.78
2018-09-24T18:58:08.695Z,62.47
2018-09-24T19:00:42.060Z,62.75
2018-09-24T19:03:15.524Z,62.56
2018-09-24T19:05:48.852Z,62.31
2018-09-24T19:08:22.359Z,62.28
2018-09-24T19:10:55.868Z,62.45
2018-09-24T19:13:29.465Z,61.67
2018-09-24T19:16:03.068Z,61.84
2018-09-24T19:18:36.551Z,62.07
2018-09-24T19:21:10.060Z,61.97
2018-09-24T19:23:43.607Z,62.06
2018-09-24T19:26:17.171Z,62.16
2018-09-24T19:28:50.692Z,62.18
2018-09-24T19:31:24.073Z,62.61
2018-09-24T19:33:57.493Z,62.13
2018-09-24T19:36:30.887Z,62.99
2018-09-24T19:39:04.325Z,62.24
2018-09-24T19:41:37.823Z,62.29
2018-09-24T19:44:11.704Z,62.64
2018-09-24T19:46:45.237Z,62.84
2018-09-24T19:49:18.700Z,63.02
2018-09-24T19:51:52.263Z,62.58
2018-09-24T19:54:25.652Z,62.94
2018-09-24T19:56:59.152Z,62.53
2018-09-24T19:59:32.780Z,62.76
2018-09-24T20:02:06.279Z,63.73
2018-09-24T20:04:39.785Z,63.79
2018-09-24T20:07:13.317Z,63.72
2018-09-24T20:09:46.772Z,64.12
2018-09-24T20:12:20.084Z,63.31
2018-09-24T20:14:53.605Z,63.73
2018-09-24T20:17:27.036Z,63.46
2018-09-24T20:20:00.413Z,63.90
2018-09-24T20:22:34.018Z,64.21
2018-09-24T20:25:07.367Z,64.37
2018-09-24T20:27:40.987Z,64.18
2018-09-24T20:30:14.506Z,64.09
2018-09-24T20:32:48.100Z,64.73
2018-09-24T20:35:21.570Z,65.00
2018-09-24T20:37:55.056Z,65.19
2018-09-24T20:40:28.475Z,64.93
2018-09-24T20:43:01.816Z,65.10
2018-09-24T20:45:35.244Z,65.32
2018-09-24T20:48:08.901Z,65.87
2018-09-24T20:50:42.321Z,65.95
2018-09-24T20:53:15.893Z,66.25
2018-09-24T20:55:49.315Z,65.99
2018-09-24T20:58:22.745Z,65.11
2018-09-24T21:00:56.348Z,65.68
2018-09-24T21:03:29.852Z,65.42
2018-09-24T21:06:03.204Z,66.25
2018-09-24T21:08:36.678Z,66.30
2018-09-24T21:11:10.034Z,65.94
2018-09-24T21:13:43.384Z,66.22
2018-09-24T21:16:16.924Z,65.81
2018-09-24T21:18:50.420Z,66.57
2018-09-24T21:21:23.880Z,66.09
2018-09-24T21:23:57.293Z,67.19
2018-09-24T21:26:30.604Z,67.08
2018-09-24T21:29:03.978Z,66.90
2018-09-24T21:31:37.484Z,67.47
2018-09-24T21:34:10.987Z,67.65
2018-09-24T21:36:44.488Z,67.06
2018-09-24T21:39:17.984Z,66.79
2018-09-24T21:41:51.568Z,67.11
2018-09-24T21:44:24.992Z,67.94
2018-09-24T21:46:58.454Z,67.45
2018-09-24T21:49:31.981Z,68.20
2018-09-24T21:52:05.356Z,67.00
2018-09-24T21:54:38.863Z,67.54
2018-09-24T21:57:12.413Z,67.59
2018-09-24T21:59:45.904Z,66.99
2018-09-24T22:02:19.244Z,67.46
2018-09-24T22:04:52.776Z,67.35
2018-09-24T22:07:26.249Z,68.11
2018-09-24T22:09:59.851Z,67.20
2018-09-24T22:12:33.237Z,67.38
2018-09-24T22:15:06.601Z,68.50
2018-09-24T22:17:40.108Z,68.25
2018-09-24T22:20:13.633Z,67.82
2018-09-24T22:22:46.993Z,67.60
2018-09-24T22:25:20.493Z,68.51
2018-09-24T22:27:53.798Z,68.49
2018-09-24T22:30:27.171Z,68.13
2018-09-24T22:33:00.547Z,67.69
2018-09-24T22:35:33.977Z,67.89
2018-09-24T22:38:07.489Z,68.72
2018-09-24T22:40:40.881Z,68.84
2018-09-24T22:43:14.270Z,68.96
2018-09-24T22:45:47.792Z,68.44
2018-09-24T22:48:21.145Z,68.45
2018-09-24T22:50:54.644Z,69.26
2018-09-24T22:53:28.151Z,69.12
2018-09-24T22:56:01.630Z,68.93
2018-09-24T22:58:34.956Z,69.34
2018-09-24T23:01:08.356Z,69.14
2018-09-24T23:03:41.712Z,69.30
2018-09-24T23:06:15.132Z,68.88
2018-09-24T23:08:48.544Z,69.34
2018-09-24T23:11:22.144Z,69.64
2018-09-24T23:13:55.536Z,69.03
2018-09-24T23:16:29.048Z,69.79
2018-09-24T23:19:02.404Z,68.96
2018-09-24T23:21:35.913Z,69.59
2018-09-24T23:24:09.416Z,68.83
2018-09-24T23:26:42.985Z,68.90
2018-09-24T23:29:16.392Z,70.01
2018-09-24T23:31:49.792Z,69.90
2018-09-24T23:34:23.308Z,69.92
2018-09-24T23:36:56.829Z,69.00
2018-09-24T23:39:30.404Z,69.60
2018-09-24T23:42:03.911Z,69.21
2018-09-24T23:44:37.216Z,69.28
2018-09-24T23:47:10.935Z,69.90
2018-09-24T23:49:44.496Z,69.83
2018-09-24T23:52:17.892Z,70.11
2018-09-24T23:54:51.243Z,70.45
2018-09-24T23:57:24.672Z,69.71
2018-09-24T23:59:58.092Z,70.83
